createdAt,value
2023-04-29T00:02:14.077Z,100459.94
2023-04-29T00:04:40.733Z,100461.81
2023-04-29T00:07:08.878Z,100466.19
2023-04-29T00:09:36.114Z,100472.63
2023-04-29T00:12:02.537Z,100458.47
2023-04-29T00:14:28.984Z,100473.19
2023-04-29T00:16:55.441Z,100469.00
2023-04-29T00:19:21.867Z,100465.84
2023-04-29T00:21:48.363Z,100475.31
2023-04-29T00:24:14.693Z,100481.09
2023-04-29T00:26:41.254Z,100490.59
2023-04-29T00:29:07.681Z,100478.50
2023-04-29T00:31:34.125Z,100480.75
2023-04-29T00:34:00.611Z,100481.28
2023-04-29T00:36:28.540Z,100496.00
2023-04-29T00:38:55.081Z,100487.44
2023-04-29T00:41:21.524Z,100491.34
2023-04-29T00:43:47.963Z,100491.69
2023-04-29T00:46:14.392Z,100498.13
2023-04-29T00:48:41.442Z,100499.31
2023-04-29T00:51:08.574Z,100504.06
2023-04-29T00:53:35.654Z,100508.81
2023-04-29T00:56:02.865Z,100505.47
2023-04-29T00:58:35.259Z,100503.78
2023-04-29T01:01:03.667Z,100515.75
2023-04-29T01:03:31.674Z,100518.00
2023-04-29T01:06:32.115Z,100521.72
2023-04-29T01:09:14.217Z,100521.06
2023-04-29T01:11:54.296Z,100525.97
2023-04-29T01:14:21.857Z,100527.19
2023-04-29T01:16:52.052Z,100532.59
2023-04-29T01:19:38.779Z,100537.97
2023-04-29T01:22:05.199Z,100530.88
2023-04-29T01:24:31.633Z,100541.88
2023-04-29T01:27:09.654Z,100543.72
2023-04-29T01:29:45.719Z,100548.47
2023-04-29T01:32:19.119Z,100550.28
2023-04-29T01:34:59.775Z,100552.16
2023-04-29T01:37:41.911Z,100549.66
2023-04-29T01:40:25.504Z,100561.44
2023-04-29T01:43:00.460Z,100562.47
2023-04-29T01:45:28.764Z,100558.44
2023-04-29T01:47:58.725Z,100557.63
2023-04-29T01:50:25.165Z,100563.38
2023-04-29T01:52:51.527Z,100559.00
2023-04-29T01:55:18.052Z,100565.41
2023-04-29T01:57:44.478Z,100563.75
2023-04-29T02:00:11.841Z,100565.59
2023-04-29T02:02:38.434Z,100565.41
2023-04-29T02:05:05.130Z,100579.09
2023-04-29T02:07:31.639Z,100575.34
2023-04-29T02:09:58.101Z,100574.53
2023-04-29T02:12:24.516Z,100583.59
2023-04-29T02:14:54.265Z,100588.00
2023-04-29T02:17:20.762Z,100588.16
2023-04-29T02:19:47.210Z,100588.38
2023-04-29T02:22:13.572Z,100589.19
2023-04-29T02:24:40.216Z,100590.19
2023-04-29T02:27:06.830Z,100600.13
2023-04-29T02:29:33.389Z,100600.13
2023-04-29T02:31:59.864Z,100605.53
2023-04-29T02:34:26.251Z,100604.53
2023-04-29T02:36:52.658Z,100603.50
2023-04-29T02:39:20.544Z,100614.44
2023-04-29T02:41:46.948Z,100612.41
2023-04-29T02:44:13.412Z,100608.88
2023-04-29T02:46:42.505Z,100608.88
2023-04-29T02:49:08.835Z,100615.94
2023-04-29T02:51:35.380Z,100614.28
2023-04-29T02:54:01.806Z,100621.34
2023-04-29T02:56:29.362Z,100624.91
2023-04-29T02:58:55.807Z,100619.66
2023-04-29T03:01:22.452Z,100623.19
2023-04-29T03:03:49.240Z,100624.03
2023-04-29T03:06:16.129Z,100628.78
2023-04-29T03:08:43.166Z,100637.03
2023-04-29T03:11:09.512Z,100634.50
2023-04-29T03:13:36.053Z,100641.28
2023-04-29T03:16:02.590Z,100639.78
2023-04-29T03:18:28.921Z,100646.38
2023-04-29T03:20:55.424Z,100639.63
2023-04-29T03:23:22.401Z,100651.59
2023-04-29T03:25:48.834Z,100647.56
2023-04-29T03:28:15.366Z,100660.53
2023-04-29T03:30:42.210Z,100645.75
2023-04-29T03:33:08.606Z,100655.38
2023-04-29T03:35:35.076Z,100663.16
2023-04-29T03:38:01.615Z,100658.47
2023-04-29T03:40:28.018Z,100660.66
2023-04-29T03:42:54.451Z,100672.78
2023-04-29T03:45:21.216Z,100664.03
2023-04-29T03:47:47.661Z,100666.22
2023-04-29T03:50:14.078Z,100685.06
2023-04-29T03:52:40.516Z,100671.13
2023-04-29T03:55:07.263Z,100672.97
2023-04-29T03:57:33.601Z,100673.16
2023-04-29T03:59:59.935Z,100679.56
2023-04-29T04:02:26.611Z,100690.66
2023-04-29T04:04:55.149Z,100681.09
2023-04-29T04:07:21.880Z,100685.78
2023-04-29T04:09:48.296Z,100698.56
2023-04-29T04:12:14.650Z,100705.16
2023-04-29T04:14:41.196Z,100702.78
2023-04-29T04:17:07.546Z,100702.13
2023-04-29T04:19:33.950Z,100710.19
2023-04-29T04:22:00.402Z,100719.28
2023-04-29T04:24:26.861Z,100717.63
2023-04-29T04:26:53.237Z,100721.16
2023-04-29T04:29:19.673Z,100729.38
2023-04-29T04:31:47.209Z,100725.03
2023-04-29T04:34:13.818Z,100724.19
2023-04-29T04:36:40.220Z,100730.41
2023-04-29T04:39:06.754Z,100738.47
2023-04-29T04:41:33.412Z,100740.16
2023-04-29T04:43:59.820Z,100749.91
2023-04-29T04:46:26.270Z,100740.00
2023-04-29T04:48:52.685Z,100751.44
2023-04-29T04:51:19.155Z,100750.22
2023-04-29T04:53:45.670Z,100750.91
2023-04-29T04:56:12.111Z,100761.31
2023-04-29T04:58:38.464Z,100765.53
2023-04-29T05:01:05.006Z,100763.50
2023-04-29T05:03:31.700Z,100769.72
2023-04-29T05:06:00.305Z,100777.50
2023-04-29T05:08:27.008Z,100776.81
2023-04-29T05:10:54.271Z,100779.66
2023-04-29T05:13:21.138Z,100786.22
2023-04-29T05:15:47.687Z,100789.09
2023-04-29T05:18:14.108Z,100793.63
2023-04-29T05:20:40.525Z,100784.03
2023-04-29T05:23:07.106Z,100788.59
2023-04-29T05:25:33.521Z,100794.16
2023-04-29T05:27:59.954Z,100795.00
2023-04-29T05:30:27.060Z,100797.69
2023-04-29T05:32:53.599Z,100807.63
2023-04-29T05:35:20.083Z,100808.44
2023-04-29T05:37:46.643Z,100808.44
2023-04-29T05:40:13.233Z,100809.44
2023-04-29T05:42:39.663Z,100812.31
2023-04-29T05:45:06.721Z,100823.22
2023-04-29T05:47:33.360Z,100821.56
2023-04-29T05:49:59.795Z,100826.28
2023-04-29T05:52:26.363Z,100825.28
2023-04-29T05:54:52.892Z,100830.66
2023-04-29T05:57:19.307Z,100830.47
2023-04-29T05:59:45.843Z,100832.00
2023-04-29T06:02:12.480Z,100836.34
2023-04-29T06:04:41.163Z,100843.25
2023-04-29T06:07:09.260Z,100854.03
2023-04-29T06:09:36.926Z,100852.34
2023-04-29T06:12:03.747Z,100853.19
2023-04-29T06:14:30.294Z,100873.03
2023-04-29T06:16:56.912Z,100871.34
2023-04-29T06:19:24.903Z,100872.38
2023-04-29T06:21:51.519Z,100882.13
2023-04-29T06:24:17.978Z,100881.13
2023-04-29T06:26:44.508Z,100887.34
2023-04-29T06:29:10.938Z,100892.56
2023-04-29T06:31:38.256Z,100889.00
2023-04-29T06:34:04.842Z,100893.56
2023-04-29T06:36:32.202Z,100897.28
2023-04-29T06:38:58.847Z,100895.56
2023-04-29T06:41:25.505Z,100903.66
2023-04-29T06:43:51.918Z,100899.97
2023-04-29T06:46:18.360Z,100901.47
2023-04-29T06:48:44.880Z,100899.97
2023-04-29T06:51:11.381Z,100900.31
2023-04-29T06:53:37.766Z,100912.09
2023-04-29T06:56:06.645Z,100916.81
2023-04-29T06:58:33.211Z,100919.84
2023-04-29T07:00:59.791Z,100929.94
2023-04-29T07:03:26.671Z,100932.28
2023-04-29T07:05:53.208Z,100928.25
2023-04-29T07:08:19.630Z,100934.81
2023-04-29T07:10:54.582Z,100944.06
2023-04-29T07:13:21.157Z,100944.44
2023-04-29T07:15:47.544Z,100953.69
2023-04-29T07:18:14.053Z,100960.25
2023-04-29T07:20:40.496Z,100969.56
2023-04-29T07:23:06.942Z,100965.34
2023-04-29T07:25:34.123Z,100967.34
2023-04-29T07:28:00.564Z,100973.75
2023-04-29T07:30:27.255Z,100974.75
2023-04-29T07:32:53.746Z,100981.13
2023-04-29T07:35:20.787Z,100981.09
2023-04-29T07:37:47.268Z,100983.75
2023-04-29T07:40:13.820Z,100991.00
2023-04-29T07:42:40.359Z,100992.84
2023-04-29T07:45:07.439Z,100995.69
2023-04-29T07:47:33.965Z,100987.72
2023-04-29T07:50:00.902Z,100995.16
2023-04-29T07:52:27.422Z,100998.81
2023-04-29T07:54:56.126Z,101004.16
2023-04-29T07:57:22.663Z,101012.41
2023-04-29T07:59:55.414Z,101022.22
2023-04-29T08:02:22.060Z,101023.38
2023-04-29T08:04:49.237Z,101032.25
2023-04-29T08:07:15.828Z,101028.69
2023-04-29T08:09:42.189Z,101030.84
2023-04-29T08:12:09.121Z,101035.06
2023-04-29T08:14:35.748Z,101041.28
2023-04-29T08:17:02.096Z,101042.13
2023-04-29T08:19:28.538Z,101057.97
2023-04-29T08:21:55.078Z,101057.97
2023-04-29T08:24:22.709Z,101055.94
2023-04-29T08:26:49.084Z,101057.47
2023-04-29T08:29:16.120Z,101058.13
2023-04-29T08:31:42.588Z,101065.03
2023-04-29T08:34:08.966Z,101053.03
2023-04-29T08:36:36.967Z,101057.88
2023-04-29T08:39:03.373Z,101067.31
2023-04-29T08:41:32.411Z,101077.41
2023-04-29T08:44:01.025Z,101070.63
2023-04-29T08:46:27.793Z,101076.34
2023-04-29T08:48:56.442Z,101077.50
2023-04-29T08:51:22.904Z,101084.03
2023-04-29T08:53:49.370Z,101085.19
2023-04-29T08:56:21.774Z,101085.31
2023-04-29T08:58:54.351Z,101079.16
2023-04-29T09:01:23.061Z,101073.69
2023-04-29T09:04:15.855Z,101088.69
2023-04-29T09:06:42.301Z,101076.94
2023-04-29T09:09:09.573Z,101084.31
2023-04-29T09:11:36.995Z,101080.25
2023-04-29T09:14:04.393Z,101073.44
2023-04-29T09:16:31.119Z,101090.63
2023-04-29T09:18:57.721Z,101086.53
2023-04-29T09:21:26.022Z,101090.19
2023-04-29T09:23:57.488Z,101088.22
2023-04-29T09:26:25.055Z,101089.34
2023-04-29T09:29:08.150Z,101088.03
2023-04-29T09:31:35.082Z,101096.91
2023-04-29T09:34:01.558Z,101099.53
2023-04-29T09:36:49.084Z,101095.13
2023-04-29T09:39:20.711Z,101103.00
2023-04-29T09:41:53.216Z,101108.34
2023-04-29T09:44:29.207Z,101107.56
2023-04-29T09:47:05.041Z,101114.28
2023-04-29T09:49:45.959Z,101105.41
2023-04-29T09:52:15.096Z,101113.16
2023-04-29T09:54:42.457Z,101115.47
2023-04-29T09:57:10.706Z,101125.75
2023-04-29T09:59:39.640Z,101129.97
2023-04-29T10:02:15.398Z,101129.00
2023-04-29T10:04:44.389Z,101127.56
2023-04-29T10:07:14.868Z,101119.53
2023-04-29T10:09:41.583Z,101129.81
2023-04-29T10:12:08.370Z,101130.25
2023-04-29T10:14:41.800Z,101125.47
2023-04-29T10:17:11.491Z,101130.69
2023-04-29T10:19:53.602Z,101124.88
2023-04-29T10:22:36.112Z,101129.06
2023-04-29T10:25:05.920Z,101133.28
2023-04-29T10:27:33.995Z,101126.63
2023-04-29T10:30:02.255Z,101132.31
2023-04-29T10:32:36.959Z,101132.56
2023-04-29T10:35:13.685Z,101115.34
2023-04-29T10:37:44.618Z,101123.56
2023-04-29T10:40:22.319Z,101124.84
2023-04-29T10:42:52.844Z,101131.75
2023-04-29T10:45:31.706Z,101124.09
2023-04-29T10:48:09.055Z,101135.56
2023-04-29T10:50:39.750Z,101131.63
2023-04-29T10:53:06.179Z,101133.56
2023-04-29T10:55:36.600Z,101129.22
2023-04-29T10:58:04.345Z,101136.31
2023-04-29T11:00:35.503Z,101130.50
2023-04-29T11:03:05.589Z,101136.13
2023-04-29T11:05:34.377Z,101134.66
2023-04-29T11:08:16.365Z,101132.13
2023-04-29T11:10:43.927Z,101133.16
2023-04-29T11:13:30.544Z,101127.16
2023-04-29T11:16:11.320Z,101124.69
2023-04-29T11:19:03.907Z,101126.78
2023-04-29T11:21:31.043Z,101135.59
2023-04-29T11:23:57.636Z,101136.25
2023-04-29T11:26:24.684Z,101137.31
2023-04-29T11:28:52.096Z,101136.91
2023-04-29T11:31:18.445Z,101139.22
2023-04-29T11:33:44.907Z,101146.97
2023-04-29T11:36:11.542Z,101145.97
2023-04-29T11:38:40.805Z,101143.03
2023-04-29T11:41:07.275Z,101141.53
2023-04-29T11:43:33.609Z,101149.47
2023-04-29T11:45:59.969Z,101145.22
2023-04-29T11:48:26.553Z,101153.13
2023-04-29T11:50:59.711Z,101158.94
2023-04-29T11:53:27.785Z,101162.47
2023-04-29T11:55:55.230Z,101169.97
2023-04-29T11:58:22.504Z,101163.69
2023-04-29T12:00:49.709Z,101169.31
2023-04-29T12:03:18.000Z,101159.28
2023-04-29T12:05:51.932Z,101164.53
2023-04-29T12:08:26.426Z,101168.50
2023-04-29T12:10:54.697Z,101163.16
2023-04-29T12:13:23.638Z,101168.69
2023-04-29T12:15:51.442Z,101162.09
2023-04-29T12:18:19.525Z,101159.28
2023-04-29T12:20:46.084Z,101164.19
2023-04-29T12:23:18.925Z,101160.25
2023-04-29T12:25:53.095Z,101156.75
2023-04-29T12:28:20.041Z,101159.06
2023-04-29T12:30:47.330Z,101155.75
2023-04-29T12:33:21.885Z,101164.31
2023-04-29T12:35:52.114Z,101175.00
2023-04-29T12:38:27.719Z,101170.41
2023-04-29T12:40:56.392Z,101165.81
2023-04-29T12:43:29.987Z,101165.63
2023-04-29T12:46:02.778Z,101175.44
2023-04-29T12:48:46.500Z,101168.94
2023-04-29T12:51:13.257Z,101168.34
2023-04-29T12:53:39.708Z,101167.09
2023-04-29T12:56:06.822Z,101182.53
2023-04-29T12:58:34.754Z,101182.75
2023-04-29T13:01:02.007Z,101178.34
2023-04-29T13:03:28.965Z,101176.88
2023-04-29T13:05:55.902Z,101181.28
2023-04-29T13:08:22.985Z,101181.06
2023-04-29T13:10:49.627Z,101180.88
2023-04-29T13:13:16.218Z,101174.38
2023-04-29T13:15:42.583Z,101182.34
2023-04-29T13:18:08.992Z,101177.16
2023-04-29T13:20:41.130Z,101170.88
2023-04-29T13:23:08.441Z,101167.97
2023-04-29T13:25:34.776Z,101169.03
2023-04-29T13:28:01.106Z,101176.81
2023-04-29T13:30:27.554Z,101171.38
2023-04-29T13:32:56.752Z,101172.63
2023-04-29T13:35:29.584Z,101173.00
2023-04-29T13:37:56.949Z,101164.66
2023-04-29T13:40:27.488Z,101170.47
2023-04-29T13:43:02.160Z,101167.13
2023-04-29T13:45:30.817Z,101158.97
2023-04-29T13:48:09.446Z,101155.84
2023-04-29T13:51:04.820Z,101166.75
2023-04-29T13:56:58.214Z,101165.50
2023-04-29T14:01:44.152Z,101179.28
2023-04-29T14:04:03.364Z,101178.81
2023-04-29T14:06:32.176Z,101171.66
2023-04-29T14:09:00.480Z,101177.69
2023-04-29T14:11:27.598Z,101180.41
2023-04-29T14:13:53.935Z,101176.63
2023-04-29T14:16:21.603Z,101177.72
2023-04-29T14:18:47.948Z,101182.34
2023-04-29T14:21:14.492Z,101172.53
2023-04-29T14:23:41.156Z,101197.06
2023-04-29T14:26:22.997Z,101188.91
2023-04-29T14:28:57.646Z,101176.31
2023-04-29T14:31:28.439Z,101192.00
2023-04-29T14:33:55.778Z,101194.13
2023-04-29T14:36:22.248Z,101192.63
2023-04-29T14:38:48.885Z,101195.94
2023-04-29T14:41:15.879Z,101203.88
2023-04-29T14:43:42.829Z,101206.34
2023-04-29T14:46:09.492Z,101204.22
2023-04-29T14:48:36.006Z,101199.19
2023-04-29T14:51:02.426Z,101206.94
2023-04-29T14:53:28.774Z,101207.94
2023-04-29T14:55:55.305Z,101217.81
2023-04-29T14:58:21.703Z,101209.66
2023-04-29T15:00:48.122Z,101213.00
2023-04-29T15:03:22.075Z,101205.28
2023-04-29T15:05:50.656Z,101206.16
2023-04-29T15:08:17.958Z,101215.81
2023-04-29T15:10:48.285Z,101218.38
2023-04-29T15:13:14.811Z,101226.13
2023-04-29T15:15:41.414Z,101216.94
2023-04-29T15:18:08.738Z,101223.22
2023-04-29T15:20:36.957Z,101227.00
2023-04-29T15:23:04.423Z,101224.66
2023-04-29T15:25:33.563Z,101236.34
2023-04-29T15:28:00.353Z,101232.75
2023-04-29T15:30:27.415Z,101239.41
2023-04-29T15:32:55.232Z,101243.09
2023-04-29T15:35:21.870Z,101246.63
2023-04-29T15:37:48.429Z,101250.13
2023-04-29T15:40:14.921Z,101237.16
2023-04-29T15:42:41.463Z,101245.66
2023-04-29T15:45:11.264Z,101240.59
2023-04-29T15:47:37.798Z,101241.84
2023-04-29T15:50:04.496Z,101245.78
2023-04-29T15:52:31.286Z,101248.91
2023-04-29T15:54:58.328Z,101252.03
2023-04-29T15:57:25.724Z,101248.88
2023-04-29T15:59:52.333Z,101247.97
2023-04-29T16:02:20.276Z,101250.44
2023-04-29T16:04:47.021Z,101251.22
2023-04-29T16:07:13.719Z,101257.25
2023-04-29T16:09:40.128Z,101253.44
2023-04-29T16:12:06.564Z,101255.50
2023-04-29T16:14:32.903Z,101259.44
2023-04-29T16:17:00.382Z,101260.50
2023-04-29T16:19:26.948Z,101257.94
2023-04-29T16:21:53.300Z,101267.16
2023-04-29T16:24:19.707Z,101264.59
2023-04-29T16:26:47.973Z,101262.94
2023-04-29T16:29:14.322Z,101272.09
2023-04-29T16:31:40.852Z,101275.03
2023-04-29T16:34:07.339Z,101270.81
2023-04-29T16:36:33.812Z,101273.72
2023-04-29T16:39:00.242Z,101266.63
2023-04-29T16:41:26.836Z,101270.16
2023-04-29T16:43:54.019Z,101263.31
2023-04-29T16:46:20.585Z,101272.38
2023-04-29T16:48:47.298Z,101278.06
2023-04-29T16:51:14.015Z,101274.75
2023-04-29T16:53:40.556Z,101272.50
2023-04-29T16:56:07.243Z,101274.44
2023-04-29T16:58:33.817Z,101273.91
2023-04-29T17:01:00.325Z,101277.97
2023-04-29T17:03:26.845Z,101273.88
2023-04-29T17:05:53.299Z,101287.78
2023-04-29T17:08:19.971Z,101284.53
2023-04-29T17:10:46.692Z,101280.22
2023-04-29T17:13:13.097Z,101285.94
2023-04-29T17:15:40.231Z,101296.47
2023-04-29T17:18:06.845Z,101286.44
2023-04-29T17:20:33.848Z,101290.88
2023-04-29T17:23:00.423Z,101291.78
2023-04-29T17:25:26.767Z,101294.50
2023-04-29T17:27:53.153Z,101303.13
2023-04-29T17:30:19.687Z,101294.56
2023-04-29T17:32:46.766Z,101307.16
2023-04-29T17:35:13.208Z,101299.16
2023-04-29T17:37:39.645Z,101303.78
2023-04-29T17:40:06.684Z,101301.25
2023-04-29T17:42:33.028Z,101298.72
2023-04-29T17:44:59.414Z,101307.94
2023-04-29T17:47:25.866Z,101307.28
2023-04-29T17:49:53.153Z,101309.38
2023-04-29T17:52:21.421Z,101315.84
2023-04-29T17:54:50.729Z,101317.94
2023-04-29T17:57:17.249Z,101314.38
2023-04-29T17:59:43.654Z,101314.59
2023-04-29T18:02:10.140Z,101321.47
2023-04-29T18:04:37.290Z,101328.34
2023-04-29T18:07:03.872Z,101319.94
2023-04-29T18:09:30.431Z,101321.16
2023-04-29T18:11:56.766Z,101329.66
2023-04-29T18:14:23.430Z,101326.91
2023-04-29T18:16:49.937Z,101331.44
2023-04-29T18:19:16.350Z,101333.28
2023-04-29T18:21:42.825Z,101338.03
2023-04-29T18:24:09.167Z,101343.78
2023-04-29T18:26:35.792Z,101338.19
2023-04-29T18:29:02.260Z,101341.19
2023-04-29T18:31:29.259Z,101340.13
2023-04-29T18:33:55.695Z,101346.59
2023-04-29T18:36:23.587Z,101340.44
2023-04-29T18:38:50.450Z,101354.94
2023-04-29T18:41:16.787Z,101343.16
2023-04-29T18:43:43.196Z,101359.13
2023-04-29T18:46:09.620Z,101363.19
2023-04-29T18:48:36.535Z,101368.94
2023-04-29T18:51:04.340Z,101370.06
2023-04-29T18:53:31.690Z,101371.88
2023-04-29T18:55:58.118Z,101367.41
2023-04-29T18:58:26.788Z,101377.97
2023-04-29T19:00:53.596Z,101381.06
2023-04-29T19:03:20.455Z,101382.50
2023-04-29T19:05:48.145Z,101383.72
2023-04-29T19:08:16.374Z,101392.19
2023-04-29T19:10:44.123Z,101392.56
2023-04-29T19:13:11.406Z,101403.41
2023-04-29T19:15:37.933Z,101396.34
2023-04-29T19:18:04.966Z,101403.78
2023-04-29T19:20:31.621Z,101402.78
2023-04-29T19:22:58.015Z,101411.88
2023-04-29T19:25:26.248Z,101402.78
2023-04-29T19:27:53.531Z,101413.59
2023-04-29T19:30:20.016Z,101419.84
2023-04-29T19:32:47.073Z,101419.84
2023-04-29T19:35:13.639Z,101419.84
2023-04-29T19:37:40.515Z,101427.75
2023-04-29T19:40:10.325Z,101420.50
2023-04-29T19:42:37.896Z,101427.75
2023-04-29T19:45:07.476Z,101435.47
2023-04-29T19:47:34.772Z,101428.19
2023-04-29T19:50:02.059Z,101425.47
2023-04-29T19:52:29.828Z,101440.47
2023-04-29T19:54:56.650Z,101440.44
2023-04-29T19:57:23.348Z,101441.41
2023-04-29T19:59:49.793Z,101438.69
2023-04-29T20:02:16.336Z,101445.03
2023-04-29T20:04:42.961Z,101446.00
2023-04-29T20:07:09.380Z,101449.50
2023-04-29T20:09:37.169Z,101448.94
2023-04-29T20:12:04.040Z,101449.88
2023-04-29T20:14:31.874Z,101457.22
2023-04-29T20:17:00.568Z,101462.69
2023-04-29T20:19:27.497Z,101461.09
2023-04-29T20:21:54.159Z,101470.09
2023-04-29T20:24:20.578Z,101461.25
2023-04-29T20:26:47.593Z,101462.19
2023-04-29T20:29:14.042Z,101468.50
2023-04-29T20:31:40.753Z,101471.13
2023-04-29T20:34:07.295Z,101473.72
2023-04-29T20:36:33.762Z,101483.41
2023-04-29T20:39:00.981Z,101486.72
2023-04-29T20:41:28.881Z,101489.97
2023-04-29T20:43:56.098Z,101487.19
2023-04-29T20:46:24.614Z,101486.66
2023-04-29T20:48:52.385Z,101488.13
2023-04-29T20:51:18.826Z,101501.16
2023-04-29T20:53:45.552Z,101496.38
2023-04-29T20:56:11.959Z,101494.13
2023-04-29T20:58:38.526Z,101502.66
2023-04-29T21:01:05.014Z,101520.06
2023-04-29T21:03:31.437Z,101508.75
2023-04-29T21:05:58.110Z,101513.72
2023-04-29T21:08:24.521Z,101518.56
2023-04-29T21:10:51.348Z,101512.63
2023-04-29T21:13:17.933Z,101522.69
2023-04-29T21:15:47.009Z,101524.81
2023-04-29T21:18:14.133Z,101530.47
2023-04-29T21:20:40.704Z,101530.75
2023-04-29T21:23:07.089Z,101526.63
2023-04-29T21:25:33.484Z,101522.41
2023-04-29T21:27:59.874Z,101527.09
2023-04-29T21:30:26.248Z,101517.59
2023-04-29T21:32:53.247Z,101528.53
2023-04-29T21:35:19.995Z,101531.47
2023-04-29T21:37:47.064Z,101535.28
2023-04-29T21:40:14.269Z,101531.06
2023-04-29T21:42:43.277Z,101536.72
2023-04-29T21:45:10.294Z,101537.84
2023-04-29T21:47:36.883Z,101532.78
2023-04-29T21:50:03.410Z,101532.22
2023-04-29T21:52:34.865Z,101541.41
2023-04-29T21:55:02.372Z,101539.84
2023-04-29T21:57:42.669Z,101541.00
2023-04-29T22:00:20.640Z,101538.59
2023-04-29T22:02:47.158Z,101545.94
2023-04-29T22:05:13.508Z,101529.94
2023-04-29T22:07:39.945Z,101536.44
2023-04-29T22:10:06.981Z,101540.97
2023-04-29T22:12:33.308Z,101547.34
2023-04-29T22:14:59.788Z,101551.72
2023-04-29T22:17:26.235Z,101547.47
2023-04-29T22:19:52.794Z,101550.16
2023-04-29T22:22:19.382Z,101550.16
2023-04-29T22:24:45.812Z,101542.94
2023-04-29T22:27:12.133Z,101544.97
2023-04-29T22:29:39.235Z,101543.25
2023-04-29T22:32:05.801Z,101551.31
2023-04-29T22:34:32.289Z,101557.69
2023-04-29T22:36:58.655Z,101555.97
2023-04-29T22:39:25.337Z,101557.97
2023-04-29T22:41:51.675Z,101565.16
2023-04-29T22:44:18.027Z,101563.47
2023-04-29T22:46:44.428Z,101569.00
2023-04-29T22:49:10.929Z,101571.81
2023-04-29T22:51:37.356Z,101570.25
2023-04-29T22:54:03.868Z,101569.53
2023-04-29T22:56:30.235Z,101566.13
2023-04-29T22:58:56.567Z,101568.13
2023-04-29T23:01:23.162Z,101564.72
2023-04-29T23:03:49.560Z,101569.38
2023-04-29T23:06:16.063Z,101566.13
2023-04-29T23:08:44.107Z,101578.00
2023-04-29T23:11:11.421Z,101573.88
2023-04-29T23:13:37.780Z,101575.00
2023-04-29T23:16:04.393Z,101584.19
2023-04-29T23:18:30.867Z,101584.59
2023-04-29T23:20:57.383Z,101584.03
2023-04-29T23:23:23.818Z,101580.78
2023-04-29T23:25:50.165Z,101588.38
2023-04-29T23:28:16.526Z,101587.78
2023-04-29T23:30:42.862Z,101586.38
2023-04-29T23:33:09.383Z,101584.94
2023-04-29T23:35:35.787Z,101583.53
2023-04-29T23:38:02.142Z,101592.81
2023-04-29T23:40:29.045Z,101586.03
2023-04-29T23:42:55.875Z,101593.38
2023-04-29T23:45:22.290Z,101590.25
2023-04-29T23:47:48.736Z,101594.88
2023-04-29T23:50:15.153Z,101589.78
2023-04-29T23:52:41.569Z,101592.75
2023-04-29T23:55:08.864Z,101598.38
2023-04-29T23:57:35.264Z,101600.34
